Time;durP1;ratioP1;P1;durP2;ratioP2;P2;SDS_P1;SDS_P2;PMS_P1;PMS_P2;Temp;Humidity;BMP_temperature;BMP_pressure;BME280_temperature;BME280_humidity;BME280_pressure;Samples;Min_cycle;Max_cycle;Signal;HPM_P1;HPM_P2
2022/11/11 00:00:34;;;;;;;3.25;2.83;;;14.30;65.40;;;;;;5040942;28;20304;-72
2022/11/11 00:03:00;;;;;;;3.90;3.45;;;14.30;65.40;;;;;;5025603;28;20022;-71
2022/11/11 00:05:26;;;;;;;4.80;3.30;;;14.40;65.50;;;;;;5040876;28;20062;-72
2022/11/11 00:07:58;;;;;;;3.80;2.97;;;14.40;65.40;;;;;;5025467;28;20190;-71
2022/11/11 00:10:25;;;;;;;3.90;3.20;;;14.30;65.40;;;;;;5039871;28;20233;-72
2022/11/11 00:12:51;;;;;;;3.53;3.00;;;14.30;65.50;;;;;;5025413;28;20013;-72
2022/11/11 00:15:16;;;;;;;3.88;3.10;;;14.30;65.50;;;;;;5025356;28;20049;-71
2022/11/11 00:26:09;;;;;;;4.60;3.45;;;14.30;65.40;;;;;;5025176;28;20064;-71
2022/11/11 00:28:35;;;;;;;4.57;3.20;;;14.30;65.40;;;;;;5025009;28;20110;-71
2022/11/11 00:31:04;;;;;;;3.45;3.00;;;14.30;65.40;;;;;;5025037;28;20030;-71
2022/11/11 00:33:29;;;;;;;3.42;3.13;;;14.30;65.40;;;;;;5040336;28;20037;-70
2022/11/11 00:35:56;;;;;;;4.03;3.17;;;14.30;65.40;;;;;;5024947;28;20218;-71
2022/11/11 00:41:10;;;;;;;3.53;2.67;;;14.30;65.50;;;;;;5024802;28;20081;-72
2022/11/11 00:43:36;;;;;;;3.85;3.20;;;14.30;65.40;;;;;;5024856;28;20025;-72
2022/11/11 00:51:30;;;;;;;3.40;3.08;;;14.30;65.60;;;;;;5024745;28;20068;-71
2022/11/11 00:53:56;;;;;;;3.50;2.80;;;14.30;65.60;;;;;;5024630;28;20025;-71
2022/11/11 00:56:22;;;;;;;4.35;3.50;;;14.30;65.50;;;;;;5024554;28;20022;-71
2022/11/11 00:58:48;;;;;;;3.53;3.03;;;14.30;65.60;;;;;;5024570;28;20187;-71
2022/11/11 01:01:15;;;;;;;3.20;2.85;;;14.30;65.50;;;;;;5039790;28;20018;-71
2022/11/11 01:03:40;;;;;;;3.35;2.78;;;14.30;65.50;;;;;;5024472;28;20045;-71
2022/11/11 01:06:06;;;;;;;3.97;3.05;;;14.30;65.50;;;;;;5024403;28;20064;-71
2022/11/11 01:08:32;;;;;;;4.85;3.40;;;14.30;65.50;;;;;;5039663;28;20022;-71
2022/11/11 01:10:58;;;;;;;3.40;2.80;;;14.30;65.50;;;;;;5039685;28;20097;-71
2022/11/11 01:13:27;;;;;;;4.78;3.60;;;14.30;65.60;;;;;;5024299;28;20026;-72
2022/11/11 01:16:01;;;;;;;3.90;3.15;;;14.20;65.60;;;;;;5024272;28;20246;-71
2022/11/11 01:18:28;;;;;;;2.97;2.65;;;14.30;65.50;;;;;;5024274;28;20213;-71
2022/11/11 01:21:27;;;;;;;4.50;3.33;;;14.30;65.60;;;;;;5039181;28;20026;-71
2022/11/11 01:23:53;;;;;;;4.00;3.50;;;14.30;65.60;;;;;;5037442;28;20025;-72
2022/11/11 01:26:22;;;;;;;3.97;3.20;;;14.30;65.50;;;;;;5024038;28;20309;-71
2022/11/11 01:28:50;;;;;;;4.10;3.42;;;14.30;65.50;;;;;;5023866;28;20112;-71
2022/11/11 01:31:17;;;;;;;4.23;3.37;;;14.30;65.60;;;;;;5024123;28;20021;-72
2022/11/11 01:33:43;;;;;;;4.20;3.33;;;14.30;65.60;;;;;;5024015;28;20022;-72
2022/11/11 01:36:17;;;;;;;3.40;3.10;;;14.30;65.50;;;;;;5022810;28;20024;-72
2022/11/11 01:38:47;;;;;;;4.10;3.17;;;14.30;65.60;;;;;;5023998;28;20014;-72
2022/11/11 01:41:31;;;;;;;3.80;3.13;;;14.30;65.60;;;;;;5039105;28;20049;-71
2022/11/11 01:44:02;;;;;;;4.20;3.25;;;14.30;65.60;;;;;;5023909;28;20025;-71
2022/11/11 01:46:35;;;;;;;3.28;2.75;;;14.20;65.50;;;;;;5023897;28;20017;-71
2022/11/11 01:49:24;;;;;;;3.83;2.78;;;14.20;65.60;;;;;;5023880;28;20022;-71
2022/11/11 01:52:26;;;;;;;4.78;3.58;;;14.20;65.50;;;;;;5023832;28;20021;-72
2022/11/11 01:54:57;;;;;;;3.75;3.03;;;14.20;65.50;;;;;;5019949;28;20037;-71
2022/11/11 01:57:26;;;;;;;4.35;3.20;;;14.30;65.50;;;;;;5039046;28;20018;-71
2022/11/11 01:59:59;;;;;;;4.25;3.03;;;14.20;65.50;;;;;;5023642;28;20388;-71
2022/11/11 02:02:48;;;;;;;3.45;2.95;;;14.20;65.50;;;;;;5023724;28;20025;-71
2022/11/11 02:08:05;;;;;;;5.22;3.65;;;14.20;65.40;;;;;;5023617;28;20306;-73
2022/11/11 02:10:32;;;;;;;4.15;3.13;;;14.30;65.50;;;;;;5022456;28;20028;-72
2022/11/11 02:15:43;;;;;;;4.47;3.03;;;14.20;65.50;;;;;;5023611;28;20017;-71
2022/11/11 02:18:10;;;;;;;4.15;3.30;;;14.20;65.50;;;;;;5023512;28;20085;-71
2022/11/11 02:20:43;;;;;;;4.05;2.88;;;14.20;65.60;;;;;;5023443;28;20093;-72
2022/11/11 02:23:21;;;;;;;3.70;2.67;;;14.20;65.50;;;;;;5039018;28;20329;-72
2022/11/11 02:25:49;;;;;;;4.22;3.05;;;14.20;65.50;;;;;;5022429;28;20072;-71
2022/11/11 02:28:17;;;;;;;3.40;3.10;;;14.20;65.50;;;;;;5038622;28;20034;-72
2022/11/11 02:30:42;;;;;;;3.92;3.20;;;14.30;65.50;;;;;;5038773;28;20261;-72
2022/11/11 02:33:08;;;;;;;4.10;2.97;;;14.20;65.50;;;;;;5040262;28;20018;-71
2022/11/11 02:35:42;;;;;;;3.60;2.92;;;14.20;65.40;;;;;;5042644;28;20026;-72
2022/11/11 02:38:12;;;;;;;4.07;3.00;;;14.20;65.40;;;;;;5042549;28;20022;-71
2022/11/11 02:43:30;;;;;;;3.95;3.03;;;14.20;65.50;;;;;;5006359;28;20341;-71
2022/11/11 02:45:56;;;;;;;3.80;3.35;;;14.20;65.50;;;;;;5027016;28;20352;-72
2022/11/11 02:48:22;;;;;;;4.05;3.08;;;14.20;65.40;;;;;;5042333;28;20209;-72
2022/11/11 02:50:48;;;;;;;3.90;3.10;;;14.20;65.50;;;;;;5026981;28;20262;-72
2022/11/11 02:53:14;;;;;;;3.20;2.72;;;14.20;65.50;;;;;;5026895;28;20025;-72
2022/11/11 02:55:40;;;;;;;3.80;3.30;;;14.20;65.50;;;;;;5026823;28;20025;-71
2022/11/11 02:58:06;;;;;;;3.25;2.95;;;14.20;65.50;;;;;;5026825;28;20183;-71
2022/11/11 03:00:35;;;;;;;3.40;3.10;;;14.20;65.50;;;;;;5026726;28;20310;-71
2022/11/11 03:03:00;;;;;;;3.63;2.90;;;14.20;65.40;;;;;;5026720;28;20014;-71
2022/11/11 03:05:26;;;;;;;3.60;3.05;;;14.20;65.50;;;;;;5026633;28;20024;-71
2022/11/11 03:07:52;;;;;;;3.60;2.78;;;14.20;65.60;;;;;;5041999;28;20017;-71
2022/11/11 03:10:18;;;;;;;6.03;3.72;;;14.20;65.60;;;;;;5041985;28;20068;-71
2022/11/11 03:12:43;;;;;;;3.55;2.97;;;14.20;65.60;;;;;;5041906;28;20096;-72
2022/11/11 03:15:09;;;;;;;3.72;3.22;;;14.20;65.50;;;;;;5026437;28;20022;-72
2022/11/11 03:17:38;;;;;;;4.55;3.42;;;14.20;65.40;;;;;;5026438;28;20018;-71
2022/11/11 03:23:18;;;;;;;3.20;2.90;;;14.20;65.40;;;;;;5026458;28;19954;-70
2022/11/11 03:25:46;;;;;;;3.28;2.97;;;14.30;65.40;;;;;;5039794;28;20164;-71
2022/11/11 03:28:18;;;;;;;4.17;2.67;;;14.20;65.30;;;;;;5026440;28;20104;-71
2022/11/11 03:30:48;;;;;;;3.28;2.63;;;14.20;65.40;;;;;;5026258;28;20559;-71
2022/11/11 03:33:16;;;;;;;3.65;3.05;;;14.20;65.40;;;;;;5025837;28;20025;-71
2022/11/11 03:35:42;;;;;;;3.25;2.92;;;14.20;65.30;;;;;;5026187;28;20017;-71
2022/11/11 03:38:23;;;;;;;3.63;3.22;;;14.20;65.30;;;;;;5026119;28;20010;-71
2022/11/11 03:40:56;;;;;;;4.15;2.70;;;14.20;65.40;;;;;;5041377;28;20018;-71
2022/11/11 03:43:25;;;;;;;3.45;2.70;;;14.20;65.30;;;;;;5025920;28;20018;-71
2022/11/11 03:45:55;;;;;;;3.17;2.45;;;14.20;65.40;;;;;;5025979;28;20022;-72
2022/11/11 03:48:21;;;;;;;4.07;3.00;;;14.20;65.40;;;;;;5025886;28;20380;-71
2022/11/11 03:50:47;;;;;;;3.22;2.58;;;14.20;65.50;;;;;;5025790;28;20245;-71
2022/11/11 03:53:14;;;;;;;3.58;3.17;;;14.20;65.50;;;;;;5041145;28;20022;-72
2022/11/11 03:55:40;;;;;;;3.53;2.72;;;14.20;65.40;;;;;;5041120;28;20097;-72
2022/11/11 03:58:07;;;;;;;3.67;3.10;;;14.20;65.50;;;;;;5025717;28;20028;-72
2022/11/11 04:00:33;;;;;;;3.13;2.83;;;14.20;65.60;;;;;;5025550;28;20367;-73
2022/11/11 04:11:37;;;;;;;4.00;3.03;;;14.20;65.40;;;;;;5025480;28;20086;-73
2022/11/11 04:16:51;;;;;;;4.53;3.28;;;14.20;65.40;;;;;;5025402;28;20064;-71
2022/11/11 04:22:01;;;;;;;2.70;2.50;;;14.20;65.40;;;;;;5025203;28;20025;-70
2022/11/11 04:27:14;;;;;;;3.00;2.70;;;14.20;65.40;;;;;;5025192;28;20016;-72
2022/11/11 04:29:40;;;;;;;3.05;2.65;;;14.20;65.40;;;;;;5024961;28;20056;-71
2022/11/11 04:34:58;;;;;;;3.45;2.90;;;14.20;66.10;;;;;;5025052;28;20052;-72
2022/11/11 04:37:26;;;;;;;5.03;4.03;;;14.20;65.50;;;;;;5040293;28;20018;-71
2022/11/11 04:42:38;;;;;;;2.95;2.55;;;14.20;65.50;;;;;;5024894;28;20048;-72
2022/11/11 04:47:58;;;;;;;4.32;3.35;;;14.20;65.40;;;;;;5024824;28;20086;-71
2022/11/11 04:50:26;;;;;;;3.25;2.80;;;14.20;65.50;;;;;;5024739;28;20025;-71
2022/11/11 04:52:52;;;;;;;3.22;2.78;;;14.20;65.50;;;;;;5024720;28;20029;-71
2022/11/11 04:58:02;;;;;;;2.97;2.67;;;14.20;65.40;;;;;;5024633;28;20064;-71
2022/11/11 05:00:29;;;;;;;3.50;2.90;;;14.20;65.50;;;;;;5024449;28;20206;-71
2022/11/11 05:11:16;;;;;;;3.40;2.90;;;14.20;65.60;;;;;;5024422;28;20371;-71
2022/11/11 05:22:26;;;;;;;4.75;3.10;;;14.10;65.50;;;;;;5024181;28;20209;-71
2022/11/11 05:27:38;;;;;;;3.13;2.67;;;14.20;65.40;;;;;;5024175;28;20049;-73
2022/11/11 05:30:05;;;;;;;3.97;3.50;;;14.20;65.50;;;;;;5023943;28;20065;-71
2022/11/11 05:32:31;;;;;;;3.47;3.03;;;14.20;65.50;;;;;;5024033;28;20041;-71
2022/11/11 05:34:57;;;;;;;3.80;2.88;;;14.10;65.40;;;;;;5039302;28;20340;-71
2022/11/11 05:37:22;;;;;;;2.80;2.42;;;14.20;65.50;;;;;;5023935;28;20014;-71
2022/11/11 05:39:48;;;;;;;3.00;2.70;;;14.20;65.60;;;;;;5023916;28;20017;-71
2022/11/11 05:42:14;;;;;;;3.25;2.47;;;14.10;65.40;;;;;;5023846;28;20032;-71
2022/11/11 05:44:40;;;;;;;3.30;2.83;;;14.10;65.50;;;;;;5023845;28;20215;-71
2022/11/11 05:47:06;;;;;;;2.92;2.63;;;14.10;65.50;;;;;;5039101;28;20022;-70
2022/11/11 05:49:32;;;;;;;3.70;3.10;;;14.10;65.50;;;;;;5039128;28;20021;-72
2022/11/11 05:51:58;;;;;;;4.05;3.00;;;14.20;65.50;;;;;;5023738;28;20328;-71
2022/11/11 05:54:24;;;;;;;3.35;2.80;;;14.20;65.50;;;;;;5023740;28;20021;-71
2022/11/11 05:56:50;;;;;;;3.10;2.80;;;14.20;65.50;;;;;;5039063;28;20377;-71
2022/11/11 05:59:16;;;;;;;2.97;2.60;;;14.20;65.50;;;;;;5023678;28;20431;-71
2022/11/11 06:01:43;;;;;;;2.92;2.67;;;14.10;65.50;;;;;;5038914;28;20025;-71
2022/11/11 06:04:09;;;;;;;2.75;2.45;;;14.10;65.50;;;;;;5023663;28;20025;-71
2022/11/11 06:06:35;;;;;;;2.95;2.60;;;14.10;65.50;;;;;;5023605;28;20028;-71
2022/11/11 06:09:02;;;;;;;3.70;2.88;;;14.20;65.50;;;;;;5026667;28;20014;-71
2022/11/11 06:11:31;;;;;;;3.53;2.72;;;14.20;65.40;;;;;;5027723;28;20072;-71
2022/11/11 06:13:57;;;;;;;3.58;2.80;;;14.20;65.50;;;;;;5027672;28;20089;-71
2022/11/11 06:16:22;;;;;;;3.63;2.55;;;14.20;65.50;;;;;;5042982;28;20064;-71
2022/11/11 06:18:49;;;;;;;2.92;2.65;;;14.20;65.40;;;;;;5027500;28;20092;-71
2022/11/11 06:21:16;;;;;;;3.47;2.67;;;14.10;65.40;;;;;;5027440;28;20068;-71
2022/11/11 06:23:42;;;;;;;3.10;2.70;;;14.20;65.40;;;;;;5027497;28;20010;-72
2022/11/11 06:26:13;;;;;;;2.50;2.30;;;14.20;65.30;;;;;;5027393;28;20018;-72
2022/11/11 06:28:47;;;;;;;2.55;2.35;;;14.20;65.30;;;;;;5027276;28;20062;-71
2022/11/11 06:31:21;;;;;;;3.10;2.60;;;14.20;65.20;;;;;;5027352;28;20068;-72
2022/11/11 06:33:47;;;;;;;3.20;2.65;;;14.20;65.30;;;;;;5027307;28;20333;-71
2022/11/11 06:36:15;;;;;;;3.38;2.80;;;14.20;65.30;;;;;;5027208;28;20021;-71
2022/11/11 06:38:41;;;;;;;3.70;2.90;;;14.20;65.20;;;;;;5042540;28;20021;-71
2022/11/11 06:41:08;;;;;;;3.05;2.47;;;14.20;65.20;;;;;;5027011;28;20063;-72
2022/11/11 06:43:35;;;;;;;2.80;2.55;;;14.20;65.30;;;;;;5027096;28;20064;-72
2022/11/11 06:46:01;;;;;;;3.03;2.65;;;14.20;65.30;;;;;;5027079;28;20294;-72
2022/11/11 06:48:27;;;;;;;3.85;3.38;;;14.20;65.20;;;;;;5026955;28;20037;-72
2022/11/11 06:50:54;;;;;;;2.83;2.10;;;14.20;65.20;;;;;;5026937;28;20028;-71
2022/11/11 06:53:21;;;;;;;2.80;2.55;;;14.20;65.30;;;;;;5042222;28;20021;-71
2022/11/11 06:55:50;;;;;;;3.30;2.42;;;14.20;65.20;;;;;;5026861;28;20021;-71
2022/11/11 06:58:18;;;;;;;3.58;2.60;;;14.20;65.10;;;;;;5042195;28;20045;-72
2022/11/11 07:00:45;;;;;;;3.03;2.72;;;14.20;65.20;;;;;;5026757;28;20206;-72
2022/11/11 07:03:14;;;;;;;3.10;2.78;;;14.20;65.10;;;;;;5042106;28;20097;-71
2022/11/11 07:05:41;;;;;;;2.58;2.38;;;14.20;65.10;;;;;;5042081;28;20098;-72
2022/11/11 07:08:10;;;;;;;2.80;2.60;;;14.20;65.20;;;;;;5041983;28;20343;-71
2022/11/11 07:10:38;;;;;;;2.95;2.63;;;14.20;65.20;;;;;;5026622;28;20089;-71
2022/11/11 07:13:05;;;;;;;3.42;2.58;;;14.20;65.20;;;;;;5026598;28;20024;-72
2022/11/11 07:15:31;;;;;;;3.08;2.40;;;14.20;65.10;;;;;;5026543;28;20025;-72
2022/11/11 07:17:57;;;;;;;3.72;2.70;;;14.20;65.30;;;;;;5026360;28;20018;-71
2022/11/11 07:20:23;;;;;;;3.70;2.97;;;14.20;65.30;;;;;;5041354;28;20080;-72
2022/11/11 07:22:49;;;;;;;3.50;2.95;;;14.20;65.20;;;;;;5041679;28;20018;-71
2022/11/11 07:25:15;;;;;;;3.10;2.50;;;14.20;65.20;;;;;;5026307;28;20025;-71
2022/11/11 07:27:41;;;;;;;2.97;2.67;;;14.20;65.30;;;;;;5026291;28;20022;-71
2022/11/11 07:30:09;;;;;;;2.65;2.42;;;14.20;65.30;;;;;;5026104;28;20115;-72
2022/11/11 07:32:35;;;;;;;2.95;2.50;;;14.20;65.20;;;;;;5026209;28;20369;-71
2022/11/11 07:35:02;;;;;;;3.08;2.60;;;14.20;65.20;;;;;;5025015;28;20018;-72
2022/11/11 07:37:29;;;;;;;3.22;2.85;;;14.20;65.20;;;;;;5026130;28;20018;-72
2022/11/11 07:39:55;;;;;;;2.97;2.45;;;14.20;65.10;;;;;;5025989;28;20018;-72
2022/11/11 07:42:21;;;;;;;3.08;2.75;;;14.20;65.20;;;;;;5025978;28;20076;-72
2022/11/11 07:44:47;;;;;;;2.92;2.55;;;14.20;65.20;;;;;;5025971;28;20014;-72
2022/11/11 07:47:13;;;;;;;2.60;2.22;;;14.20;65.30;;;;;;5025869;28;20081;-71
2022/11/11 07:49:39;;;;;;;2.75;2.55;;;14.20;65.20;;;;;;5041210;28;20025;-71
2022/11/11 07:52:04;;;;;;;3.10;2.75;;;14.20;65.20;;;;;;5041168;28;20025;-72
2022/11/11 07:54:31;;;;;;;3.00;2.60;;;14.20;65.20;;;;;;5025800;28;20216;-71
2022/11/11 07:56:56;;;;;;;3.88;2.83;;;14.20;65.10;;;;;;5025715;28;20018;-72
2022/11/11 07:59:22;;;;;;;2.80;2.50;;;14.20;65.20;;;;;;5025661;28;20029;-72
2022/11/11 08:01:48;;;;;;;2.50;2.30;;;14.20;65.20;;;;;;5025563;28;20041;-72
2022/11/11 08:04:14;;;;;;;3.08;2.78;;;14.20;65.20;;;;;;5025576;28;20048;-72
2022/11/11 08:06:40;;;;;;;4.40;3.00;;;14.20;65.20;;;;;;5025500;28;20026;-72
2022/11/11 08:09:06;;;;;;;3.20;2.83;;;14.20;65.10;;;;;;5040841;28;20013;-72
2022/11/11 08:14:29;;;;;;;3.13;2.60;;;14.20;65.30;;;;;;5002938;28;20026;-71
2022/11/11 08:16:55;;;;;;;3.10;2.60;;;14.20;65.10;;;;;;5025326;28;20028;-71
2022/11/11 08:19:21;;;;;;;2.45;2.25;;;14.20;65.10;;;;;;5040635;28;20255;-71
2022/11/11 08:21:47;;;;;;;3.03;2.70;;;14.20;65.10;;;;;;5040543;28;20049;-71
2022/11/11 08:24:13;;;;;;;3.42;2.90;;;14.20;65.10;;;;;;5040555;28;20022;-72
2022/11/11 08:26:39;;;;;;;3.20;2.80;;;14.20;65.20;;;;;;5025227;28;20010;-71
2022/11/11 08:29:05;;;;;;;3.28;2.55;;;14.20;65.30;;;;;;5040338;28;20077;-71
2022/11/11 08:31:31;;;;;;;3.72;2.92;;;14.20;65.30;;;;;;5024147;28;20025;-72
2022/11/11 08:33:57;;;;;;;2.92;2.63;;;14.20;65.20;;;;;;5025074;28;20076;-72
2022/11/11 08:36:24;;;;;;;2.90;2.45;;;14.20;65.20;;;;;;5024944;28;20018;-71
2022/11/11 08:38:49;;;;;;;3.53;3.03;;;14.20;65.20;;;;;;5024925;28;20022;-72
2022/11/11 08:41:15;;;;;;;3.03;2.70;;;14.20;65.20;;;;;;5024867;28;20025;-71
2022/11/11 08:43:41;;;;;;;2.83;2.53;;;14.20;65.20;;;;;;5040225;28;20313;-72
2022/11/11 08:46:07;;;;;;;3.00;2.67;;;14.20;65.20;;;;;;5024802;28;20054;-72
2022/11/11 08:48:33;;;;;;;2.85;2.55;;;14.20;65.10;;;;;;5024757;28;20021;-72
2022/11/11 08:50:59;;;;;;;2.92;2.60;;;14.20;65.10;;;;;;5024678;28;20041;-71
2022/11/11 08:53:26;;;;;;;2.53;2.33;;;14.20;65.10;;;;;;5024671;28;20203;-71
2022/11/11 08:55:51;;;;;;;2.50;2.30;;;14.20;65.10;;;;;;5024637;28;20014;-72
2022/11/11 08:58:17;;;;;;;3.15;2.72;;;14.20;65.10;;;;;;5024615;28;20018;-72
2022/11/11 09:00:43;;;;;;;2.70;2.30;;;14.20;65.10;;;;;;5024454;28;20258;-71
2022/11/11 09:03:10;;;;;;;3.40;2.72;;;14.30;65.10;;;;;;5039832;28;20017;-71
2022/11/11 09:05:38;;;;;;;3.10;2.80;;;14.20;65.00;;;;;;5024521;28;20018;-72
2022/11/11 09:08:06;;;;;;;3.13;2.67;;;14.30;65.10;;;;;;5024482;28;20018;-71
2022/11/11 09:10:36;;;;;;;2.83;2.53;;;14.30;64.90;;;;;;5024437;28;20361;-71
2022/11/11 09:13:02;;;;;;;3.00;2.60;;;14.30;65.00;;;;;;5024405;28;20076;-71
2022/11/11 09:15:30;;;;;;;2.97;2.58;;;14.30;65.00;;;;;;5024308;28;20021;-71
2022/11/11 09:17:56;;;;;;;2.95;2.63;;;14.30;65.60;;;;;;5024289;28;20026;-72
2022/11/11 09:20:22;;;;;;;2.90;2.40;;;14.30;64.90;;;;;;5024163;28;20021;-71
2022/11/11 09:22:49;;;;;;;2.60;2.40;;;14.30;64.90;;;;;;5024208;28;20014;-71
2022/11/11 09:25:16;;;;;;;3.03;2.38;;;14.30;65.60;;;;;;5039503;28;20076;-71
2022/11/11 09:27:42;;;;;;;3.60;2.88;;;14.30;64.90;;;;;;5024121;28;20014;-71
2022/11/11 09:30:09;;;;;;;3.28;2.55;;;14.40;64.80;;;;;;5023964;28;20109;-71
2022/11/11 09:32:36;;;;;;;2.70;2.40;;;14.40;64.90;;;;;;5024059;28;20073;-70
2022/11/11 09:35:03;;;;;;;2.45;2.25;;;14.40;64.90;;;;;;5024041;28;20266;-71
2022/11/11 09:37:29;;;;;;;3.03;2.42;;;14.40;64.80;;;;;;5039316;28;20018;-71
2022/11/11 09:39:55;;;;;;;2.58;2.28;;;14.40;64.90;;;;;;5023895;28;20068;-72
2022/11/11 09:42:48;;;;;;;3.47;2.42;;;14.30;64.90;;;;;;5038934;28;20025;-72
2022/11/11 09:45:35;;;;;;;2.50;2.30;;;14.40;64.80;;;;;;5022965;28;20379;-71
2022/11/11 09:48:19;;;;;;;2.92;2.45;;;14.40;64.80;;;;;;5039194;28;20022;-71
2022/11/11 09:50:53;;;;;;;2.75;2.50;;;14.40;64.80;;;;;;5023813;28;20022;-72
2022/11/11 09:53:21;;;;;;;3.20;2.83;;;14.40;64.70;;;;;;5023854;28;20324;-72
2022/11/11 09:56:05;;;;;;;3.42;2.60;;;14.40;64.70;;;;;;5039076;28;20022;-71
2022/11/11 10:01:38;;;;;;;4.15;3.28;;;14.40;64.60;;;;;;5023583;28;20314;-72
2022/11/11 10:04:26;;;;;;;2.67;2.40;;;14.40;64.60;;;;;;5023722;28;20028;-72
2022/11/11 10:07:24;;;;;;;3.10;2.55;;;14.40;64.80;;;;;;5023615;28;20069;-71
2022/11/11 10:10:03;;;;;;;3.38;2.83;;;14.40;64.90;;;;;;5030595;28;20301;-71
2022/11/11 10:12:38;;;;;;;2.50;2.20;;;14.40;65.00;;;;;;5023624;28;20017;-71
2022/11/11 10:15:10;;;;;;;2.67;2.30;;;14.40;64.90;;;;;;5023685;28;20418;-72
2022/11/11 10:17:54;;;;;;;3.35;2.70;;;14.50;64.70;;;;;;5023527;28;20137;-72
2022/11/11 10:20:30;;;;;;;3.30;3.00;;;14.50;64.60;;;;;;5023451;28;20050;-72
2022/11/11 10:23:18;;;;;;;2.53;2.33;;;14.50;64.60;;;;;;5023541;28;20018;-72
2022/11/11 10:25:55;;;;;;;2.97;2.50;;;14.50;64.40;;;;;;5022216;28;20092;-71
2022/11/11 10:28:27;;;;;;;2.95;2.47;;;14.50;64.50;;;;;;5038577;28;20042;-72
2022/11/11 10:30:54;;;;;;;2.90;2.60;;;14.50;65.30;;;;;;5038762;28;20250;-72
2022/11/11 10:33:39;;;;;;;3.00;2.70;;;14.50;64.60;;;;;;5038719;28;20214;-72
2022/11/11 10:36:12;;;;;;;2.95;2.60;;;14.50;64.60;;;;;;5023414;28;20085;-71
2022/11/11 10:38:55;;;;;;;2.92;2.58;;;14.50;64.60;;;;;;5023396;28;20094;-71
2022/11/11 10:41:45;;;;;;;2.35;2.15;;;14.50;64.60;;;;;;5038534;28;20022;-72
2022/11/11 10:44:26;;;;;;;2.30;2.10;;;14.50;64.60;;;;;;5038649;28;20076;-72
2022/11/11 10:46:51;;;;;;;3.03;2.58;;;14.50;64.80;;;;;;5038643;28;20018;-72
2022/11/11 10:49:20;;;;;;;2.70;2.45;;;14.50;65.40;;;;;;5038601;28;20018;-72
2022/11/11 10:51:51;;;;;;;;;;;14.50;64.70;;;;;;5023710;28;20293;-72
2022/11/11 10:54:25;;;;;;;2.78;2.42;;;14.50;64.60;;;;;;5024954;28;19901;-72
2022/11/11 10:57:09;;;;;;;2.70;2.38;;;14.50;64.60;;;;;;5027013;28;20092;-71
2022/11/11 10:59:48;;;;;;;2.70;2.50;;;14.50;64.70;;;;;;5026851;28;20026;-71
2022/11/11 11:02:35;;;;;;;3.20;2.60;;;14.50;64.80;;;;;;5026750;28;20026;-72
2022/11/11 11:05:06;;;;;;;2.50;2.30;;;14.50;64.80;;;;;;5026751;28;20029;-72
2022/11/11 11:07:55;;;;;;;3.22;2.58;;;14.50;64.70;;;;;;5026762;28;20041;-72
2022/11/11 11:10:40;;;;;;;3.05;2.35;;;14.50;64.70;;;;;;5026681;28;20029;-71
2022/11/11 11:13:16;;;;;;;3.40;2.80;;;14.50;64.60;;;;;;5026669;28;20022;-71
2022/11/11 11:15:48;;;;;;;2.85;2.50;;;14.50;64.60;;;;;;5026601;28;20347;-71
2022/11/11 11:18:16;;;;;;;2.95;2.33;;;14.50;64.60;;;;;;5026529;28;20064;-72
2022/11/11 11:20:56;;;;;;;3.45;2.67;;;14.50;64.60;;;;;;5026431;28;20021;-72
2022/11/11 11:23:39;;;;;;;2.42;2.22;;;14.50;64.60;;;;;;5026421;28;20082;-72
2022/11/11 11:26:05;;;;;;;3.13;2.35;;;14.50;64.80;;;;;;5026352;28;20017;-72
2022/11/11 11:28:33;;;;;;;2.70;2.50;;;14.50;64.80;;;;;;5041428;28;20088;-72
2022/11/11 11:31:04;;;;;;;3.00;2.70;;;14.50;64.60;;;;;;5026279;28;20079;-72
2022/11/11 11:33:53;;;;;;;2.60;2.40;;;14.50;64.60;;;;;;5026246;28;20032;-72
2022/11/11 11:36:20;;;;;;;2.75;2.47;;;14.50;64.50;;;;;;5026209;28;20018;-72
2022/11/11 11:38:51;;;;;;;2.80;2.50;;;14.50;64.70;;;;;;5026161;28;20014;-72
2022/11/11 11:41:35;;;;;;;3.47;2.80;;;14.50;64.70;;;;;;5024894;28;20022;-72
2022/11/11 11:44:01;;;;;;;3.20;2.90;;;14.50;64.70;;;;;;5026079;28;20018;-71
2022/11/11 11:46:39;;;;;;;3.03;2.60;;;14.50;64.80;;;;;;5025965;28;20025;-73
2022/11/11 11:49:26;;;;;;;2.85;2.40;;;14.50;64.70;;;;;;5025966;28;20014;-72
2022/11/11 11:52:00;;;;;;;3.97;2.67;;;14.50;64.80;;;;;;5025862;28;20029;-72
2022/11/11 11:54:55;;;;;;;2.92;2.72;;;14.50;64.70;;;;;;5025846;28;20077;-72
2022/11/11 11:57:33;;;;;;;2.90;2.40;;;14.50;64.60;;;;;;5025808;28;20029;-71
2022/11/11 12:00:15;;;;;;;2.55;2.30;;;14.50;64.60;;;;;;5025733;28;20029;-71
2022/11/11 12:03:08;;;;;;;2.90;2.45;;;14.50;65.30;;;;;;5041068;28;20022;-72
2022/11/11 12:05:46;;;;;;;3.85;2.92;;;14.60;64.50;;;;;;5025625;28;20018;-72
2022/11/11 12:08:14;;;;;;;2.40;2.20;;;14.60;64.30;;;;;;5025583;28;20413;-71
2022/11/11 12:10:58;;;;;;;3.20;2.70;;;14.60;64.30;;;;;;5025534;28;20026;-72
2022/11/11 12:13:52;;;;;;;2.72;2.30;;;14.70;64.20;;;;;;5025468;28;20017;-72
2022/11/11 12:16:25;;;;;;;2.38;2.00;;;14.70;64.30;;;;;;5025342;28;20089;-72
2022/11/11 12:19:09;;;;;;;2.75;2.33;;;14.70;64.20;;;;;;5025383;28;20052;-71
2022/11/11 12:22:06;;;;;;;2.63;2.30;;;14.70;64.10;;;;;;5040621;28;20064;-71
2022/11/11 12:24:40;;;;;;;2.33;2.13;;;14.70;64.20;;;;;;5025301;28;20021;-71
2022/11/11 12:27:31;;;;;;;3.20;2.88;;;14.70;64.20;;;;;;5025279;28;20018;-70
2022/11/11 12:29:57;;;;;;;3.13;2.80;;;14.70;64.30;;;;;;5025036;28;20403;-72
2022/11/11 12:32:56;;;;;;;2.83;2.45;;;14.70;64.40;;;;;;5040415;28;20042;-72
2022/11/11 12:35:36;;;;;;;2.83;2.30;;;14.80;64.20;;;;;;5040423;28;20057;-71
2022/11/11 12:38:14;;;;;;;2.35;2.15;;;14.90;64.10;;;;;;5025045;28;20017;-72
2022/11/11 12:40:58;;;;;;;2.85;2.28;;;14.90;64.00;;;;;;5024961;28;20030;-72
2022/11/11 12:43:30;;;;;;;2.95;2.35;;;14.90;63.90;;;;;;5040322;28;20018;-72
2022/11/11 12:46:08;;;;;;;2.90;2.50;;;14.90;64.10;;;;;;5024959;28;20096;-72
2022/11/11 12:49:00;;;;;;;2.42;2.20;;;15.00;63.70;;;;;;5024895;28;20022;-72
2022/11/11 12:51:41;;;;;;;2.83;2.53;;;15.20;63.20;;;;;;5024794;28;20045;-72
2022/11/11 12:54:31;;;;;;;2.92;2.53;;;15.30;62.90;;;;;;5040060;28;20056;-71
2022/11/11 12:57:03;;;;;;;2.50;2.25;;;15.30;62.90;;;;;;5040074;28;20213;-71
2022/11/11 12:59:38;;;;;;;2.60;2.30;;;15.20;63.30;;;;;;5024611;28;20044;-71
2022/11/11 13:02:23;;;;;;;2.50;2.30;;;15.00;63.70;;;;;;5039810;28;20025;-71
2022/11/11 13:05:06;;;;;;;2.42;2.17;;;14.90;63.80;;;;;;5024584;28;20020;-70
2022/11/11 13:07:35;;;;;;;3.33;3.03;;;14.90;64.30;;;;;;5039841;28;20046;-71
2022/11/11 13:10:16;;;;;;;;;;;14.80;64.50;;;;;;5024908;28;20013;-71
2022/11/11 13:12:55;;;;;;;2.75;2.53;;;14.70;64.70;;;;;;5039749;28;19924;-72
2022/11/11 13:15:23;;;;;;;2.58;2.20;;;14.60;64.90;;;;;;5024345;28;20018;-71
2022/11/11 13:17:49;;;;;;;2.30;2.10;;;14.70;65.10;;;;;;5023903;28;20300;-71
2022/11/11 13:20:18;;;;;;;2.67;2.15;;;14.60;65.20;;;;;;5024186;28;20208;-71
2022/11/11 13:22:47;;;;;;;3.50;2.97;;;14.60;65.20;;;;;;5039619;28;20014;-71
2022/11/11 13:25:19;;;;;;;2.33;2.05;;;14.60;65.40;;;;;;5039496;28;20025;-72
2022/11/11 13:27:53;;;;;;;2.63;2.35;;;14.60;65.40;;;;;;5024182;28;20022;-71
2022/11/11 13:30:37;;;;;;;2.42;2.22;;;14.50;65.40;;;;;;5024178;28;20333;-71
2022/11/11 13:33:12;;;;;;;2.90;2.60;;;14.60;65.50;;;;;;5024103;28;20056;-71
2022/11/11 13:35:43;;;;;;;3.70;2.63;;;14.50;65.40;;;;;;5024100;28;20205;-72
2022/11/11 13:38:29;;;;;;;2.65;2.40;;;14.50;65.50;;;;;;5024006;28;20317;-71
2022/11/11 13:40:58;;;;;;;3.28;2.47;;;14.50;65.40;;;;;;5023911;28;20022;-71
2022/11/11 13:43:42;;;;;;;3.03;2.50;;;14.50;65.40;;;;;;5023991;28;20020;-72
2022/11/11 13:46:34;;;;;;;2.13;1.92;;;14.60;65.50;;;;;;5023957;28;20037;-72
2022/11/11 13:49:03;;;;;;;3.00;2.70;;;14.50;65.40;;;;;;5023849;28;20018;-71
2022/11/11 13:51:30;;;;;;;2.88;2.50;;;14.50;65.50;;;;;;5023845;28;20021;-71
2022/11/11 13:53:58;;;;;;;3.15;2.70;;;14.50;65.50;;;;;;5023797;28;20324;-71
2022/11/11 13:56:35;;;;;;;2.65;2.40;;;14.50;65.50;;;;;;5023834;28;20033;-71
2022/11/11 13:59:01;;;;;;;3.22;2.42;;;14.50;65.40;;;;;;5023787;28;20026;-71
2022/11/11 14:01:35;;;;;;;2.53;2.30;;;14.50;65.40;;;;;;5038951;28;20022;-71
2022/11/11 14:04:06;;;;;;;3.13;2.55;;;14.50;65.40;;;;;;5023710;28;20183;-72
2022/11/11 14:06:48;;;;;;;2.35;2.15;;;14.50;65.50;;;;;;5023699;28;20021;-72
2022/11/11 14:09:53;;;;;;;2.35;2.15;;;14.50;65.40;;;;;;5038967;28;20024;-71
2022/11/11 14:12:40;;;;;;;2.50;2.15;;;14.50;65.30;;;;;;5023634;28;20021;-71
2022/11/11 14:15:41;;;;;;;2.40;2.20;;;14.50;65.40;;;;;;5038905;28;20310;-71
2022/11/11 14:18:18;;;;;;;2.15;1.95;;;14.50;65.50;;;;;;5023574;28;20294;-71
2022/11/11 14:20:51;;;;;;;2.87;2.60;;;14.50;65.50;;;;;;5023448;28;20038;-71
2022/11/11 14:23:17;;;;;;;2.53;2.30;;;14.50;65.50;;;;;;5023496;28;20145;-71
2022/11/11 14:25:51;;;;;;;2.40;2.20;;;14.50;65.40;;;;;;5038808;28;20045;-71
2022/11/11 14:28:28;;;;;;;2.40;2.10;;;14.50;65.40;;;;;;5023431;28;20104;-71
2022/11/11 14:31:12;;;;;;;2.63;2.30;;;14.50;65.40;;;;;;5027407;28;20018;-71